Date,TemperatureHighF,TemperatureAvgF,TemperatureLowF,DewpointHighF,DewpointAvgF,DewpointLowF,HumidityHigh,HumidityAvg,HumidityLow,PressureMaxIn,PressureMinIn,WindSpeedMaxMPH,WindSpeedAvgMPH,GustSpeedMaxMPH,PrecipitationSumIn
2013-12-1,33.8,29.4,21.0,28.0,23.9,15.5,91,80,69,30.36,30.01,4,1,5,0.00
2013-12-2,37.5,33.8,30.3,35.3,32.1,27.7,98,94,88,30.00,29.86,3,0,3,0.04
2013-12-3,40.1,34.7,29.0,38.2,30.1,21.6,99,84,58,29.86,29.78,9,2,10,0.01
2013-12-4,38.5,33.1,28.4,24.2,21.5,17.7,75,62,53,30.12,29.82,15,3,17,0.00
2013-12-5,36.3,31.5,27.8,35.9,28.2,21.6,99,88,72,30.19,29.81,2,0,3,0.11
2013-12-6,41.8,37.2,33.1,40.5,27.8,11.1,99,72,38,30.02,29.78,15,5,18,0.21
2013-12-7,33.2,26.9,21.3,19.8,11.3,4.8,64,52,40,30.35,29.98,17,9,23,0.00
2013-12-8,25.7,21.5,18.3,9.8,4.7,1.3,62,48,37,30.49,30.34,15,6,19,0.00
2013-12-9,23.8,20.7,17.0,22.1,16.4,7.4,93,84,56,30.45,29.77,2,0,4,0.00
2013-12-10,31.6,26.0,18.4,28.3,19.1,7.2,94,75,57,29.82,29.66,8,2,12,0.00
2013-12-11,24.4,19.4,14.8,16.4,9.5,2.8,89,65,48,30.06,29.83,10,4,18,0.00
2013-12-12,14.3,8.9,6.1,1.1,-4.6,-10.5,68,54,40,30.19,29.92,14,6,17,0.00
2013-12-13,12.8,8.2,0.3,5.1,-2.6,-14.1,83,62,41,30.31,29.83,17,8,21,0.00
2013-12-14,9.9,4.2,-2.8,1.8,-10.2,-15.6,82,52,35,30.54,30.32,5,1,6,0.00
2013-12-15,23.9,18.1,6.1,19.4,13.4,2.0,90,82,67,30.29,29.40,15,5,16,0.00
2013-12-16,19.9,14.0,3.4,13.4,-0.6,-11.5,83,53,31,30.11,29.57,21,6,23,0.00
2013-12-17,9.7,3.9,-5.0,5.6,-6.4,-14.1,84,63,45,30.24,30.03,4,1,6,0.00
2013-12-18,28.4,20.5,9.3,16.4,12.6,5.2,86,72,51,30.00,29.79,15,3,17,0.01
2013-12-19,35.3,28.7,21.6,25.9,20.3,13.5,89,71,57,30.00,29.83,11,3,11,0.00
2013-12-20,34.6,31.8,29.4,30.3,27.3,24.1,94,84,68,30.03,29.83,9,1,14,0.00
2013-12-21,49.2,36.1,30.0,44.9,33.5,28.2,96,91,80,29.86,29.75,4,1,6,0.24
2013-12-22,36.2,30.6,26.0,35.4,29.6,24.8,97,96,95,29.98,29.81,4,1,5,0.47
2013-12-23,33.4,29.1,25.8,32.9,27.9,24.6,99,95,79,30.04,29.92,0,0,0,0.00
2013-12-24,29.8,23.6,8.6,23.6,14.4,-2.1,85,68,53,30.13,29.96,12,3,16,0.00
2013-12-25,18.6,10.1,3.0,6.1,-0.7,-9.9,82,62,46,30.49,30.11,15,4,19,0.00
2013-12-26,26.0,16.2,9.2,18.3,11.4,3.4,90,81,64,30.44,30.03,20,2,20,0.00
2013-12-27,28.4,25.6,21.9,19.1,14.9,11.6,78,64,49,30.11,30.05,11,4,18,0.00
2013-12-28,38.0,28.1,16.2,28.7,20.8,11.9,86,74,64,30.07,29.85,14,3,16,0.01
2013-12-29,37.0,31.1,28.2,31.2,28.0,25.3,97,88,69,29.92,29.49,7,1,8,0.00
2013-12-30,37.2,20.3,2.6,33.4,11.1,-10.8,98,68,41,30.09,29.47,19,7,25,0.00
2013-12-31,14.9,4.7,-2.0,4.1,-5.2,-13.2,82,64,48,30.08,29.95,6,1,7,0.00